首页
METAR-TAF:

METAR-TAF

机场 :

杜林機場

都灵, 意大利

纬度: 45-13N, 经度: 007-39E, 海拔: 301米

当前天气观测

该预报发布于25分钟前的01:50 UTC
风速4节,风向北转东北,在北转西北东北之间变化
温度 9°C
湿度 61%
气压 1028 hPa
能见度10公里或以上

METAR: LIMF 070150Z AUTO 02004KT 340V040 9999 NCD 09/02 Q1028

时间: 04:15 (02:15 UTC)

预报

该预报发布于3小时和15分钟前的23:00 UTC
预报有效从07日的 00点(UTC)到 07日的 24点(UTC)
风速5节,风向多变
能见度10公里或以上
1500米以下无云,无积雨云

TAF: LIMF 062300Z 0700/0724 VRB05KT CAVOK

超过4000个机场的气象观测和天气预报(METAR&TAF报告)。

可查询的气象台以黄色和红色小点在地图上表示。

将鼠标移到小点上方,可查看气象台名称。

然后点击查看天气观测和预报。

如需切换地图:点击带黑十字的绿色按钮放大地图;点击带横线的绿色按钮缩小地图;或者点击绿色箭头查看邻近地区的地图。


METAR-TAF: